Wetterdaten: Woche 28.03.16 - 03.04.16 (KW13)
Datum Zeit Temp. A. Feuchte A. Luftdruck Regen Wind Richtung Taupunkt Windchill Windben
28.03.2016 00:00 -0,5 C 92 % 1014,1 hPa 0,0 l/m 0,2 km/h (0 Bft) N -1,7 C -0,5 C 0,6 km/h (0 Bft)
28.03.2016 01:00 -1,3 C 94 % 1013,6 hPa 0,0 l/m 0,1 km/h (0 Bft) N -2,2 C -1,3 C 0,5 km/h (0 Bft)
28.03.2016 02:00 -1,8 C 94 % 1013,3 hPa 0,0 l/m 0,3 km/h (0 Bft) N -2,6 C -1,8 C 1,2 km/h (1 Bft)
28.03.2016 03:00 -2,2 C 94 % 1012,6 hPa 0,0 l/m 0,0 km/h (0 Bft) SO -3,0 C -2,2 C 0,4 km/h (0 Bft)
28.03.2016 04:00 -2,7 C 95 % 1011,5 hPa 0,0 l/m 0,1 km/h (0 Bft) SO -3,3 C -2,7 C 0,9 km/h (0 Bft)
28.03.2016 05:00 -0,5 C 96 % 1010,7 hPa 0,0 l/m 1,1 km/h (1 Bft) O-NO -1,2 C -0,5 C 3,8 km/h (1 Bft)
28.03.2016 06:00 -0,2 C 95 % 1010,3 hPa 0,0 l/m 0,9 km/h (0 Bft) O-NO -0,9 C -0,2 C 3,0 km/h (1 Bft)
28.03.2016 07:00 -0,0 C 96 % 1009,7 hPa 0,0 l/m 1,6 km/h (1 Bft) O-SO -0,7 C -0,0 C 5,5 km/h (2 Bft)
28.03.2016 08:00 2,7 C 92 % 1009,3 hPa 0,0 l/m 4,0 km/h (1 Bft) O 1,5 C 2,7 C 10,8 km/h (2 Bft)
28.03.2016 09:00 4,0 C 88 % 1009,1 hPa 0,0 l/m 4,0 km/h (1 Bft) O-NO 2,2 C 4,0 C 9,7 km/h (2 Bft)
28.03.2016 10:00 5,9 C 82 % 1008,7 hPa 0,0 l/m 4,7 km/h (1 Bft) NO 3,1 C 5,9 C 14,4 km/h (3 Bft)
28.03.2016 11:00 8,1 C 68 % 1008,6 hPa 0,0 l/m 5,2 km/h (1 Bft) O 2,5 C 7,8 C 11,4 km/h (2 Bft)
28.03.2016 12:00 7,7 C 69 % 1008,7 hPa 0,5 l/m 7,7 km/h (2 Bft) O-NO 2,3 C 6,6 C 17,0 km/h (3 Bft)
28.03.2016 13:00 8,4 C 75 % 1008,1 hPa 0,0 l/m 7,3 km/h (2 Bft) NO 4,2 C 7,5 C 16,8 km/h (3 Bft)
28.03.2016 14:00 9,4 C 76 % 1007,2 hPa 0,0 l/m 8,4 km/h (2 Bft) O-NO 5,4 C 8,0 C 17,2 km/h (3 Bft)
28.03.2016 15:00 10,8 C 70 % 1006,5 hPa 0,3 l/m 8,7 km/h (2 Bft) O-NO 5,5 C 9,3 C 17,2 km/h (3 Bft)
28.03.2016 16:00 12,3 C 60 % 1005,6 hPa 0,0 l/m 8,9 km/h (2 Bft) O 4,8 C 10,8 C 20,2 km/h (4 Bft)
28.03.2016 17:00 13,3 C 53 % 1004,7 hPa 0,0 l/m 9,8 km/h (2 Bft) NO 3,9 C 11,4 C 20,9 km/h (4 Bft)
28.03.2016 18:00 12,5 C 53 % 1004,5 hPa 0,0 l/m 11,4 km/h (2 Bft) O-NO 3,2 C 9,8 C 22,4 km/h (4 Bft)
28.03.2016 19:00 11,8 C 58 % 1004,5 hPa 0,0 l/m 9,3 km/h (2 Bft) O 3,7 C 10,0 C 22,0 km/h (4 Bft)
28.03.2016 20:00 7,5 C 88 % 1006,4 hPa 5,1 l/m 4,3 km/h (1 Bft) O 5,6 C 7,2 C 11,4 km/h (2 Bft)
28.03.2016 21:00 6,7 C 92 % 1007,3 hPa 5,1 l/m 2,6 km/h (1 Bft) O 5,5 C 6,7 C 6,6 km/h (2 Bft)
28.03.2016 22:00 6,6 C 92 % 1008,1 hPa 3,3 l/m 6,8 km/h (2 Bft) O-NO 5,3 C 5,6 C 18,2 km/h (3 Bft)
28.03.2016 23:00 6,5 C 91 % 1008,1 hPa 0,3 l/m 5,2 km/h (1 Bft) NO 5,2 C 6,3 C 13,3 km/h (3 Bft)
29.03.2016 00:00 6,5 C 89 % 1008,0 hPa 0,0 l/m 4,4 km/h (1 Bft) O-NO 4,9 C 6,4 C 11,3 km/h (2 Bft)
29.03.2016 01:00 6,9 C 87 % 1008,3 hPa 0,8 l/m 6,6 km/h (2 Bft) O-NO 4,9 C 6,2 C 17,6 km/h (3 Bft)
29.03.2016 02:00 5,9 C 87 % 1009,1 hPa 1,5 l/m 9,0 km/h (2 Bft) O-NO 3,9 C 3,8 C 22,7 km/h (4 Bft)
29.03.2016 03:00 5,4 C 87 % 1009,5 hPa 1,0 l/m 10,0 km/h (2 Bft) O 3,4 C 2,7 C 23,5 km/h (4 Bft)
29.03.2016 04:00 4,9 C 88 % 1009,7 hPa 0,0 l/m 5,3 km/h (1 Bft) NO 3,2 C 4,7 C 15,0 km/h (3 Bft)
29.03.2016 05:00 4,6 C 88 % 1010,2 hPa 0,0 l/m 5,5 km/h (2 Bft) O 2,8 C 4,1 C 11,9 km/h (2 Bft)
29.03.2016 06:00 4,5 C 85 % 1010,8 hPa 0,0 l/m 4,5 km/h (1 Bft) O 2,2 C 4,5 C 12,0 km/h (2 Bft)
29.03.2016 07:00 3,9 C 83 % 1011,4 hPa 0,0 l/m 4,8 km/h (1 Bft) O 1,2 C 3,7 C 13,4 km/h (3 Bft)
29.03.2016 08:00 5,1 C 77 % 1012,1 hPa 0,0 l/m 4,3 km/h (1 Bft) NO 1,3 C 5,1 C 11,1 km/h (2 Bft)
29.03.2016 09:00 6,1 C 73 % 1012,5 hPa 0,0 l/m 6,0 km/h (2 Bft) O-NO 1,6 C 5,8 C 14,3 km/h (3 Bft)
29.03.2016 10:00 7,3 C 68 % 1012,9 hPa 0,0 l/m 9,0 km/h (2 Bft) O-NO 1,7 C 5,4 C 22,8 km/h (4 Bft)
29.03.2016 11:00 8,4 C 60 % 1013,2 hPa 0,0 l/m 10,6 km/h (2 Bft) O-NO 1,0 C 5,6 C 22,4 km/h (4 Bft)
29.03.2016 12:00 9,1 C 57 % 1013,1 hPa 0,0 l/m 10,2 km/h (2 Bft) O-NO 0,9 C 6,5 C 20,1 km/h (4 Bft)
29.03.2016 13:00 10,6 C 51 % 1013,0 hPa 0,0 l/m 11,1 km/h (2 Bft) O 0,8 C 7,7 C 25,6 km/h (4 Bft)
29.03.2016 14:00 11,8 C 46 % 1012,5 hPa 0,0 l/m 9,2 km/h (2 Bft) O-NO 0,6 C 10,1 C 20,2 km/h (4 Bft)
29.03.2016 15:00 12,4 C 46 % 1012,3 hPa 0,0 l/m 9,1 km/h (2 Bft) O-NO 1,1 C 10,6 C 18,7 km/h (3 Bft)
29.03.2016 16:00 12,7 C 47 % 1012,0 hPa 0,0 l/m 7,4 km/h (2 Bft) O-NO 1,6 C 11,9 C 18,1 km/h (3 Bft)
29.03.2016 17:00 11,9 C 50 % 1012,0 hPa 0,0 l/m 7,1 km/h (2 Bft) O-NO 1,8 C 11,2 C 16,1 km/h (3 Bft)
29.03.2016 18:00 11,4 C 51 % 1012,2 hPa 0,0 l/m 5,1 km/h (1 Bft) O 1,7 C 11,4 C 12,0 km/h (2 Bft)
29.03.2016 19:00 10,2 C 52 % 1012,5 hPa 0,0 l/m 5,2 km/h (1 Bft) O 0,8 C 10,2 C 13,4 km/h (3 Bft)
29.03.2016 20:00 9,0 C 62 % 1013,1 hPa 0,0 l/m 4,1 km/h (1 Bft) O-NO 2,2 C 9,0 C 11,4 km/h (2 Bft)
29.03.2016 21:00 8,3 C 66 % 1013,5 hPa 0,0 l/m 1,6 km/h (1 Bft) O 2,3 C 8,3 C 4,1 km/h (1 Bft)
29.03.2016 22:00 6,3 C 75 % 1013,8 hPa 0,0 l/m 1,5 km/h (1 Bft) O 2,1 C 6,3 C 4,4 km/h (1 Bft)
29.03.2016 23:00 4,4 C 82 % 1013,7 hPa 0,0 l/m 0,3 km/h (0 Bft) O 1,6 C 4,4 C 1,2 km/h (1 Bft)
30.03.2016 00:00 3,3 C 87 % 1013,6 hPa 0,0 l/m 0,2 km/h (0 Bft) O 1,2 C 3,3 C 1,4 km/h (1 Bft)
30.03.2016 01:00 4,2 C 89 % 1013,3 hPa 0,0 l/m 1,3 km/h (1 Bft) O-SO 2,5 C 4,2 C 4,8 km/h (1 Bft)
30.03.2016 02:00 3,8 C 88 % 1013,1 hPa 0,0 l/m 0,2 km/h (0 Bft) N-NO 2,0 C 3,8 C 1,5 km/h (1 Bft)
30.03.2016 03:00 3,9 C 92 % 1012,8 hPa 0,0 l/m 1,1 km/h (0 Bft) N 2,7 C 3,9 C 2,5 km/h (1 Bft)
30.03.2016 04:00 6,1 C 92 % 1012,2 hPa 0,3 l/m 2,5 km/h (1 Bft) O 4,9 C 6,1 C 6,6 km/h (2 Bft)
30.03.2016 05:00 7,0 C 95 % 1011,5 hPa 0,8 l/m 2,8 km/h (1 Bft) N-NW 6,1 C 7,0 C 6,2 km/h (2 Bft)
30.03.2016 06:00 7,0 C 95 % 1011,4 hPa 0,3 l/m 2,2 km/h (1 Bft) NO 6,2 C 7,0 C 5,1 km/h (1 Bft)
30.03.2016 07:00 8,1 C 96 % 1011,4 hPa 1,5 l/m 2,3 km/h (1 Bft) O-NO 7,5 C 8,1 C 6,0 km/h (2 Bft)
30.03.2016 08:00 8,5 C 95 % 1011,9 hPa 1,0 l/m 3,6 km/h (1 Bft) O-NO 7,8 C 8,5 C 8,6 km/h (2 Bft)
30.03.2016 09:00 8,9 C 94 % 1011,9 hPa 1,3 l/m 4,5 km/h (1 Bft) O-NO 8,0 C 8,8 C 9,3 km/h (2 Bft)
30.03.2016 10:00 9,3 C 92 % 1012,3 hPa 1,0 l/m 5,2 km/h (1 Bft) O-NO 8,1 C 9,3 C 12,5 km/h (2 Bft)
30.03.2016 11:00 8,9 C 93 % 1012,9 hPa 2,3 l/m 4,1 km/h (1 Bft) O-NO 7,9 C 8,9 C 10,0 km/h (2 Bft)
30.03.2016 12:00 8,9 C 94 % 1013,2 hPa 1,0 l/m 3,3 km/h (1 Bft) O-NO 7,9 C 8,9 C 6,5 km/h (2 Bft)
30.03.2016 13:00 8,8 C 94 % 1013,3 hPa 0,0 l/m 3,2 km/h (1 Bft) O-NO 7,9 C 8,8 C 7,9 km/h (2 Bft)
30.03.2016 14:00 9,8 C 92 % 1013,1 hPa 0,0 l/m 5,3 km/h (1 Bft) NO 8,5 C 9,5 C 11,9 km/h (2 Bft)
30.03.2016 15:00 10,4 C 90 % 1012,9 hPa 0,5 l/m 4,1 km/h (1 Bft) NO 8,9 C 10,3 C 8,4 km/h (2 Bft)
30.03.2016 16:00 10,2 C 92 % 1012,8 hPa 0,3 l/m 2,2 km/h (1 Bft) O-NO 9,0 C 10,2 C 5,9 km/h (2 Bft)
30.03.2016 17:00 10,5 C 91 % 1012,6 hPa 0,0 l/m 3,3 km/h (1 Bft) O-NO 9,0 C 10,5 C 7,5 km/h (2 Bft)
30.03.2016 18:00 10,3 C 90 % 1012,2 hPa 0,0 l/m 3,2 km/h (1 Bft) O-NO 8,8 C 10,3 C 5,7 km/h (2 Bft)
30.03.2016 19:00 9,7 C 92 % 1012,0 hPa 0,0 l/m 0,3 km/h (0 Bft) O-NO 8,5 C 9,7 C 1,2 km/h (1 Bft)
30.03.2016 20:00 8,5 C 95 % 1012,0 hPa 0,0 l/m 0,0 km/h (0 Bft) O-NO 7,7 C 8,5 C 0,5 km/h (0 Bft)
30.03.2016 21:00 8,1 C 96 % 1012,1 hPa 0,3 l/m 0,2 km/h (0 Bft) O-NO 7,5 C 8,1 C 0,8 km/h (0 Bft)
30.03.2016 22:00 7,9 C 97 % 1011,9 hPa 0,3 l/m 0,8 km/h (0 Bft) O-SO 7,4 C 7,9 C 2,4 km/h (1 Bft)
30.03.2016 23:00 7,1 C 97 % 1011,5 hPa 0,0 l/m 0,1 km/h (0 Bft) O-SO 6,6 C 7,1 C 1,0 km/h (0 Bft)
31.03.2016 00:00 6,8 C 97 % 1011,4 hPa 0,0 l/m 0,0 km/h (0 Bft) O-SO 6,3 C 6,8 C 0,5 km/h (0 Bft)
31.03.2016 01:00 6,0 C 97 % 1011,3 hPa 0,0 l/m 0,0 km/h (0 Bft) O-SO 5,5 C 6,0 C 0,7 km/h (0 Bft)
31.03.2016 02:00 4,9 C 97 % 1011,2 hPa 0,0 l/m 0,2 km/h (0 Bft) O-SO 4,4 C 4,9 C 0,8 km/h (0 Bft)
31.03.2016 03:00 4,6 C 97 % 1011,2 hPa 0,0 l/m 0,1 km/h (0 Bft) O-SO 4,2 C 4,6 C 0,8 km/h (0 Bft)
31.03.2016 04:00 3,9 C 97 % 1011,1 hPa 0,0 l/m 0,1 km/h (0 Bft) O-SO 3,5 C 3,9 C 0,5 km/h (0 Bft)
31.03.2016 05:00 3,2 C 98 % 1010,8 hPa 0,0 l/m 0,0 km/h (0 Bft) O-SO 2,8 C 3,2 C 0,2 km/h (0 Bft)
31.03.2016 06:00 3,4 C 98 % 1010,7 hPa 0,0 l/m 0,0 km/h (0 Bft) O-SO 3,1 C 3,4 C 0,3 km/h (0 Bft)
31.03.2016 07:00 3,9 C 98 % 1010,4 hPa 0,0 l/m 0,0 km/h (0 Bft) O-SO 3,7 C 3,9 C 0,4 km/h (0 Bft)
31.03.2016 08:00 4,8 C 98 % 1010,4 hPa 0,0 l/m 0,3 km/h (0 Bft) O-SO 4,5 C 4,8 C 1,6 km/h (1 Bft)
31.03.2016 09:00 6,1 C 98 % 1010,2 hPa 0,0 l/m 0,3 km/h (0 Bft) O-SO 5,8 C 6,1 C 1,7 km/h (1 Bft)
31.03.2016 10:00 10,5 C 96 % 1009,4 hPa 0,0 l/m 1,7 km/h (1 Bft) O-SO 9,9 C 10,5 C 3,5 km/h (1 Bft)
31.03.2016 11:00 15,0 C 70 % 1008,6 hPa 0,3 l/m 2,4 km/h (1 Bft) W-NW 9,4 C 15,0 C 4,9 km/h (1 Bft)
31.03.2016 12:00 16,4 C 60 % 1008,1 hPa 0,0 l/m 3,3 km/h (1 Bft) W-NW 8,7 C 16,4 C 7,6 km/h (2 Bft)
31.03.2016 13:00 18,5 C 52 % 1007,2 hPa 0,0 l/m 3,7 km/h (1 Bft) W-NW 8,5 C 18,5 C 9,8 km/h (2 Bft)
31.03.2016 14:00 18,8 C 54 % 1006,3 hPa 0,0 l/m 3,5 km/h (1 Bft) NW 9,3 C 18,8 C 8,2 km/h (2 Bft)
31.03.2016 15:00 18,0 C 58 % 1005,9 hPa 0,0 l/m 2,2 km/h (1 Bft) W-NW 9,6 C 18,0 C 4,3 km/h (1 Bft)
31.03.2016 16:00 16,0 C 74 % 1006,2 hPa 0,0 l/m 1,4 km/h (1 Bft) O 11,4 C 16,0 C 4,0 km/h (1 Bft)
31.03.2016 17:00 14,1 C 89 % 1005,7 hPa 0,3 l/m 1,0 km/h (0 Bft) S-SW 12,3 C 14,1 C 2,7 km/h (1 Bft)
31.03.2016 18:00 13,7 C 90 % 1005,0 hPa 0,0 l/m 0,7 km/h (0 Bft) S-SW 12,1 C 13,7 C 2,3 km/h (1 Bft)
31.03.2016 19:00 13,1 C 89 % 1005,0 hPa 0,0 l/m 0,2 km/h (0 Bft) S-SW 11,4 C 13,1 C 1,3 km/h (1 Bft)
31.03.2016 20:00 11,7 C 93 % 1005,6 hPa 0,0 l/m 0,4 km/h (0 Bft) S-SW 10,6 C 11,7 C 2,3 km/h (1 Bft)
31.03.2016 21:00 11,2 C 95 % 1005,6 hPa 0,0 l/m 1,1 km/h (0 Bft) O-NO 10,3 C 11,2 C 2,4 km/h (1 Bft)
31.03.2016 22:00 10,4 C 95 % 1005,1 hPa 0,0 l/m 0,5 km/h (0 Bft) O-NO 9,7 C 10,4 C 2,5 km/h (1 Bft)
31.03.2016 23:00 9,4 C 96 % 1005,1 hPa 0,0 l/m 0,1 km/h (0 Bft) W 8,8 C 9,4 C 0,7 km/h (0 Bft)
01.04.2016 00:00 8,9 C 96 % 1005,4 hPa 0,0 l/m 0,3 km/h (0 Bft) N 8,3 C 8,9 C 0,6 km/h (0 Bft)
01.04.2016 01:00 8,5 C 96 % 1005,9 hPa 0,0 l/m 0,2 km/h (0 Bft) N 8,0 C 8,5 C 0,9 km/h (0 Bft)
01.04.2016 02:00 8,2 C 97 % 1006,7 hPa 0,0 l/m 1,6 km/h (1 Bft) O 7,7 C 8,2 C 3,3 km/h (1 Bft)
01.04.2016 03:00 9,2 C 97 % 1007,8 hPa 0,0 l/m 4,3 km/h (1 Bft) O-SO 8,8 C 9,1 C 9,7 km/h (2 Bft)
01.04.2016 04:00 9,3 C 94 % 1008,7 hPa 0,0 l/m 1,9 km/h (1 Bft) O 8,3 C 9,3 C 5,5 km/h (2 Bft)
01.04.2016 05:00 8,5 C 92 % 1009,8 hPa 0,0 l/m 2,5 km/h (1 Bft) O 7,2 C 8,5 C 6,6 km/h (2 Bft)
01.04.2016 06:00 7,6 C 92 % 1010,9 hPa 0,0 l/m 1,8 km/h (1 Bft) O 6,3 C 7,6 C 3,5 km/h (1 Bft)
01.04.2016 07:00 6,9 C 92 % 1012,2 hPa 0,0 l/m 1,4 km/h (1 Bft) O 5,7 C 6,9 C 3,0 km/h (1 Bft)
01.04.2016 08:00 6,9 C 90 % 1012,9 hPa 0,0 l/m 1,6 km/h (1 Bft) O 5,4 C 6,9 C 3,5 km/h (1 Bft)
01.04.2016 09:00 7,2 C 89 % 1013,8 hPa 0,0 l/m 1,6 km/h (1 Bft) O 5,5 C 7,2 C 4,0 km/h (1 Bft)
01.04.2016 10:00 7,2 C 89 % 1014,9 hPa 0,0 l/m 3,1 km/h (1 Bft) NO 5,4 C 7,2 C 6,4 km/h (2 Bft)
01.04.2016 11:00 6,6 C 90 % 1016,2 hPa 0,0 l/m 2,7 km/h (1 Bft) W-NW 5,2 C 6,6 C 6,2 km/h (2 Bft)
01.04.2016 12:00 5,8 C 93 % 1016,9 hPa 0,0 l/m 2,3 km/h (1 Bft) W 4,8 C 5,8 C 5,1 km/h (1 Bft)
01.04.2016 13:00 5,9 C 93 % 1017,4 hPa 0,0 l/m 3,2 km/h (1 Bft) W-NW 4,9 C 5,9 C 8,6 km/h (2 Bft)
01.04.2016 14:00 6,4 C 90 % 1017,7 hPa 0,0 l/m 2,6 km/h (1 Bft) W 4,9 C 6,4 C 6,6 km/h (2 Bft)
01.04.2016 15:00 6,8 C 90 % 1017,8 hPa 0,0 l/m 2,9 km/h (1 Bft) W 5,2 C 6,8 C 6,5 km/h (2 Bft)
01.04.2016 16:00 6,3 C 91 % 1018,1 hPa 0,0 l/m 2,8 km/h (1 Bft) W 4,8 C 6,3 C 8,2 km/h (2 Bft)
01.04.2016 17:00 6,1 C 90 % 1018,3 hPa 0,0 l/m 2,8 km/h (1 Bft) W 4,6 C 6,1 C 6,2 km/h (2 Bft)
01.04.2016 18:00 5,9 C 90 % 1018,4 hPa 0,0 l/m 1,9 km/h (1 Bft) W-NW 4,4 C 5,9 C 4,2 km/h (1 Bft)
01.04.2016 19:00 5,8 C 90 % 1019,0 hPa 0,0 l/m 1,7 km/h (1 Bft) W-NW 4,2 C 5,8 C 4,8 km/h (1 Bft)
01.04.2016 20:00 5,5 C 91 % 1019,6 hPa 0,0 l/m 1,3 km/h (1 Bft) W-NW 4,2 C 5,5 C 4,3 km/h (1 Bft)
01.04.2016 21:00 5,4 C 91 % 1019,8 hPa 0,0 l/m 1,3 km/h (1 Bft) SW 4,1 C 5,4 C 3,7 km/h (1 Bft)
01.04.2016 22:00 5,3 C 92 % 1019,3 hPa 0,0 l/m 0,6 km/h (0 Bft) S-SW 4,1 C 5,3 C 2,8 km/h (1 Bft)
01.04.2016 23:00 5,2 C 93 % 1019,1 hPa 0,0 l/m 0,5 km/h (0 Bft) W-SW 4,1 C 5,2 C 2,4 km/h (1 Bft)
02.04.2016 00:00 5,2 C 93 % 1019,3 hPa 0,0 l/m 0,7 km/h (0 Bft) W-SW 4,2 C 5,2 C 2,4 km/h (1 Bft)
02.04.2016 01:00 5,2 C 93 % 1019,6 hPa 0,0 l/m 0,6 km/h (0 Bft) S 4,2 C 5,2 C 3,2 km/h (1 Bft)
02.04.2016 02:00 5,2 C 93 % 1019,0 hPa 0,0 l/m 1,6 km/h (1 Bft) W-SW 4,1 C 5,2 C 4,3 km/h (1 Bft)
02.04.2016 03:00 5,1 C 93 % 1018,8 hPa 0,0 l/m 1,6 km/h (1 Bft) SW 4,0 C 5,1 C 4,0 km/h (1 Bft)
02.04.2016 04:00 4,9 C 94 % 1018,7 hPa 0,0 l/m 1,1 km/h (1 Bft) W-NW 4,0 C 4,9 C 4,0 km/h (1 Bft)
02.04.2016 05:00 4,9 C 95 % 1018,1 hPa 0,0 l/m 0,7 km/h (0 Bft) W 4,2 C 4,9 C 2,1 km/h (1 Bft)
02.04.2016 06:00 4,9 C 95 % 1017,8 hPa 0,0 l/m 1,2 km/h (1 Bft) W-NW 4,2 C 4,9 C 3,0 km/h (1 Bft)
02.04.2016 07:00 4,9 C 95 % 1017,7 hPa 0,0 l/m 0,9 km/h (0 Bft) NW 4,2 C 4,9 C 3,1 km/h (1 Bft)
02.04.2016 08:00 5,3 C 95 % 1017,7 hPa 0,0 l/m 1,2 km/h (1 Bft) W 4,5 C 5,3 C 3,5 km/h (1 Bft)
02.04.2016 09:00 5,5 C 94 % 1017,8 hPa 0,0 l/m 1,9 km/h (1 Bft) W 4,6 C 5,5 C 4,2 km/h (1 Bft)
02.04.2016 10:00 6,2 C 92 % 1017,8 hPa 0,0 l/m 1,7 km/h (1 Bft) W-NW 5,1 C 6,2 C 4,8 km/h (1 Bft)
02.04.2016 11:00 7,2 C 90 % 1017,7 hPa 0,3 l/m 1,7 km/h (1 Bft) W-NW 5,7 C 7,2 C 4,5 km/h (1 Bft)
02.04.2016 12:00 8,0 C 88 % 1017,5 hPa 0,0 l/m 2,7 km/h (1 Bft) W 6,1 C 8,0 C 6,0 km/h (2 Bft)
02.04.2016 13:00 10,9 C 81 % 1016,7 hPa 0,0 l/m 3,3 km/h (1 Bft) S-SW 7,7 C 10,9 C 8,0 km/h (2 Bft)
02.04.2016 14:00 12,7 C 75 % 1016,1 hPa 0,0 l/m 3,0 km/h (1 Bft) W 8,3 C 12,7 C 7,4 km/h (2 Bft)
02.04.2016 15:00 13,5 C 73 % 1015,4 hPa 0,0 l/m 3,2 km/h (1 Bft) W-NW 8,8 C 13,5 C 7,0 km/h (2 Bft)
02.04.2016 16:00 14,0 C 73 % 1014,8 hPa 0,0 l/m 2,6 km/h (1 Bft) NW 9,2 C 14,0 C 6,8 km/h (2 Bft)
02.04.2016 17:00 13,8 C 75 % 1014,3 hPa 0,0 l/m 2,4 km/h (1 Bft) SW 9,4 C 13,8 C 6,3 km/h (2 Bft)
02.04.2016 18:00 13,9 C 75 % 1014,0 hPa 0,0 l/m 3,2 km/h (1 Bft) SW 9,5 C 13,9 C 6,9 km/h (2 Bft)
02.04.2016 19:00 12,6 C 80 % 1013,8 hPa 0,0 l/m 0,8 km/h (0 Bft) SW 9,3 C 12,6 C 2,7 km/h (1 Bft)
02.04.2016 20:00 10,6 C 88 % 1013,7 hPa 0,0 l/m 0,1 km/h (0 Bft) SW 8,7 C 10,6 C 0,7 km/h (0 Bft)
02.04.2016 21:00 9,3 C 91 % 1013,8 hPa 0,0 l/m 0,0 km/h (0 Bft) SW 7,9 C 9,3 C 0,3 km/h (0 Bft)
02.04.2016 22:00 7,7 C 94 % 1013,6 hPa 0,0 l/m 0,0 km/h (0 Bft) SW 6,8 C 7,7 C 0,3 km/h (0 Bft)
02.04.2016 23:00 6,7 C 95 % 1013,4 hPa 0,0 l/m 0,1 km/h (0 Bft) SW 6,0 C 6,7 C 0,5 km/h (0 Bft)
03.04.2016 00:00 6,4 C 96 % 1013,3 hPa 0,0 l/m 0,1 km/h (0 Bft) SW 5,8 C 6,4 C 0,8 km/h (0 Bft)
03.04.2016 01:00 5,9 C 96 % 1013,2 hPa 0,0 l/m 0,1 km/h (0 Bft) SW 5,3 C 5,9 C 0,4 km/h (0 Bft)
03.04.2016 02:00 5,9 C 97 % 1013,1 hPa 0,0 l/m 0,0 km/h (0 Bft) SW 5,4 C 5,9 C 0,9 km/h (0 Bft)
03.04.2016 03:00 6,0 C 97 % 1013,0 hPa 0,0 l/m 0,5 km/h (0 Bft) SW 5,6 C 6,0 C 1,4 km/h (1 Bft)
03.04.2016 04:00 6,8 C 97 % 1012,7 hPa 0,0 l/m 0,6 km/h (0 Bft) SW 6,3 C 6,8 C 2,5 km/h (1 Bft)
03.04.2016 05:00 6,7 C 97 % 1012,8 hPa 0,0 l/m 0,8 km/h (0 Bft) SW 6,3 C 6,7 C 2,3 km/h (1 Bft)
03.04.2016 06:00 6,8 C 97 % 1012,9 hPa 0,0 l/m 0,3 km/h (0 Bft) W-SW 6,4 C 6,8 C 1,1 km/h (1 Bft)
03.04.2016 07:00 6,4 C 97 % 1013,2 hPa 0,0 l/m 0,2 km/h (0 Bft) W-SW 6,0 C 6,4 C 1,2 km/h (1 Bft)
03.04.2016 08:00 6,8 C 97 % 1013,5 hPa 0,0 l/m 0,0 km/h (0 Bft) W-SW 6,4 C 6,8 C 0,4 km/h (0 Bft)
03.04.2016 09:00 9,5 C 94 % 1013,5 hPa 0,0 l/m 1,1 km/h (0 Bft) W-SW 8,5 C 9,5 C 2,7 km/h (1 Bft)
03.04.2016 10:00 15,2 C 73 % 1013,4 hPa 0,0 l/m 1,4 km/h (1 Bft) W-SW 10,4 C 15,2 C 3,7 km/h (1 Bft)
03.04.2016 11:00 17,1 C 61 % 1013,1 hPa 0,0 l/m 3,4 km/h (1 Bft) NW 9,6 C 17,1 C 7,1 km/h (2 Bft)
03.04.2016 12:00 17,2 C 62 % 1012,8 hPa 0,0 l/m 3,8 km/h (1 Bft) W-NW 9,8 C 17,2 C 8,0 km/h (2 Bft)
03.04.2016 13:00 18,1 C 58 % 1012,1 hPa 0,0 l/m 4,1 km/h (1 Bft) S-SW 9,8 C 18,1 C 11,1 km/h (2 Bft)
03.04.2016 14:00 18,0 C 55 % 1011,3 hPa 0,0 l/m 4,8 km/h (1 Bft) W 8,9 C 18,0 C 11,7 km/h (2 Bft)
03.04.2016 15:00 17,7 C 56 % 1010,9 hPa 0,0 l/m 3,3 km/h (1 Bft) S-SW 8,9 C 17,7 C 7,2 km/h (2 Bft)
03.04.2016 16:00 18,0 C 59 % 1010,4 hPa 0,0 l/m 3,5 km/h (1 Bft) W 9,9 C 18,0 C 8,6 km/h (2 Bft)
03.04.2016 17:00 17,5 C 60 % 1009,8 hPa 0,0 l/m 3,5 km/h (1 Bft) W-NW 9,6 C 17,5 C 8,3 km/h (2 Bft)
03.04.2016 18:00 16,7 C 63 % 1009,5 hPa 0,0 l/m 2,8 km/h (1 Bft) W-NW 9,6 C 16,7 C 6,8 km/h (2 Bft)
03.04.2016 19:00 15,5 C 69 % 1009,1 hPa 0,0 l/m 1,5 km/h (1 Bft) W 9,8 C 15,5 C 5,1 km/h (1 Bft)
03.04.2016 20:00 13,6 C 79 % 1009,1 hPa 0,0 l/m 0,2 km/h (0 Bft) W 10,0 C 13,6 C 0,9 km/h (0 Bft)
03.04.2016 21:00 12,5 C 84 % 1009,0 hPa 0,0 l/m 0,1 km/h (0 Bft) W 9,9 C 12,5 C 0,3 km/h (0 Bft)
03.04.2016 22:00 11,5 C 88 % 1008,8 hPa 0,0 l/m 0,0 km/h (0 Bft) W 9,5 C 11,5 C 0,1 km/h (0 Bft)
03.04.2016 23:00 10,8 C 90 % 1008,4 hPa 0,0 l/m 0,0 km/h (0 Bft) W 9,2 C 10,8 C 0,2 km/h (0 Bft)
Min-Datum _ 28.03.16 29.03.16 28.03.16 - 03.04.16 - 28.03.16 28.03.16 03.04.16
_ Min-Zeit 04:35 15:05 19:10 - 23:00 - 04:35 04:35 23:00
Minimum _ -2,8 C 44 % 1004,2 hPa - 0,0 km/h (0 Bft) - -3,5 C -2,8 C 0,0 km/h (0 Bft)
Max-Datum _ 31.03.16 03.04.16 02.04.16 28.03.16 29.03.16 - 31.03.16 31.03.16 29.03.16
_ Max-Zeit 14:25 09:00 01:00 20:30 11:58 - 18:06 14:25 13:50
Maximum _ 19,5 C 98 % 1019,9 hPa 5,1 l/m 19,3 km/h
O-NO (3 Bft)
- 12,5 C 19,5 C 37,0 km/h
O-NO (5 Bft)
Durchschnitt _ 8,3 C 84 % 1012,0 hPa #29,2 l/m 2,8 km/h (1 Bft) O 5,5 C 8,1 C 6,7 km/h (2 Bft)